Time;durP1;ratioP1;P1;durP2;ratioP2;P2;SDS_P1;SDS_P2;PMS_P1;PMS_P2;Temp;Humidity;BMP_temperature;BMP_pressure;BME280_temperature;BME280_humidity;BME280_pressure;Samples;Min_cycle;Max_cycle;Signal;HPM_P1;HPM_P2
2022/10/12 00:00:09;;;;;;;10.32;5.82;;;;;;;14.07;74.20;100211.13;337201;29;1627;-72
2022/10/12 00:00:21;;;;;;;9.85;5.88;;;;;;;14.07;74.02;100216.34;338136;29;1459;-72
2022/10/12 00:00:33;;;;;;;9.77;5.85;;;;;;;14.06;74.28;100212.03;338445;29;1646;-71
2022/10/12 00:00:46;;;;;;;9.77;5.85;;;;;;;14.04;74.31;100208.63;339800;29;1212;-71
2022/10/12 00:00:58;;;;;;;9.52;5.80;;;;;;;14.04;74.32;100211.22;339147;29;1629;-71
2022/10/12 00:01:10;;;;;;;10.47;5.77;;;;;;;14.05;74.29;100212.94;339267;29;1721;-71
2022/10/12 00:01:22;;;;;;;9.50;5.57;;;;;;;14.04;74.22;100209.47;339611;29;1294;-71
2022/10/12 00:01:34;;;;;;;9.63;5.70;;;;;;;14.03;74.28;100212.16;339129;29;2153;-71
2022/10/12 00:01:46;;;;;;;9.60;6.15;;;;;;;14.05;74.20;100205.13;339726;29;1010;-73
2022/10/12 00:01:58;;;;;;;8.38;5.97;;;;;;;14.04;74.13;100208.63;339676;29;1050;-73
2022/10/12 00:02:10;;;;;;;8.52;5.85;;;;;;;14.02;74.10;100211.28;339460;29;1438;-73
2022/10/12 00:02:22;;;;;;;9.55;5.85;;;;;;;14.04;73.99;100211.22;339721;29;1299;-73
2022/10/12 00:02:34;;;;;;;10.55;6.22;;;;;;;14.02;74.07;100207.81;339717;29;1310;-70
2022/10/12 00:02:46;;;;;;;10.70;6.38;;;;;;;14.02;74.19;100210.44;339289;29;1234;-71
2022/10/12 00:02:58;;;;;;;9.88;6.15;;;;;;;14.00;74.30;100207.88;337436;29;1759;-71
2022/10/12 00:03:11;;;;;;;9.20;5.80;;;;;;;14.02;74.56;100213.06;337528;29;1637;-73
2022/10/12 00:03:24;;;;;;;9.20;5.70;;;;;;;14.01;74.11;100208.75;337627;29;1529;-73
2022/10/12 00:03:36;;;;;;;8.90;5.65;;;;;;;14.02;74.06;100210.44;337544;29;1977;-73
2022/10/12 00:03:49;;;;;;;7.57;5.63;;;;;;;14.01;74.19;100204.38;338469;29;1041;-73
2022/10/12 00:04:01;;;;;;;9.13;5.68;;;;;;;14.01;74.18;100203.53;338768;29;1027;-72
2022/10/12 00:04:12;;;;;;;9.88;5.80;;;;;;;14.02;74.16;100208.66;338352;29;1035;-72
2022/10/12 00:04:24;;;;;;;8.80;5.78;;;;;;;14.02;74.01;100211.28;338299;29;1911;-72
2022/10/12 00:04:36;;;;;;;8.98;5.75;;;;;;;14.02;74.15;100205.22;338547;29;1194;-72
2022/10/12 00:04:48;;;;;;;9.57;5.53;;;;;;;14.05;73.96;100210.34;338929;29;1028;-73
2022/10/12 00:05:00;;;;;;;8.65;5.32;;;;;;;14.04;73.89;100212.06;337868;29;1793;-72
2022/10/12 00:05:12;;;;;;;7.18;5.10;;;;;;;14.05;74.03;100207.72;338548;29;1055;-72
2022/10/12 00:05:24;;;;;;;8.15;5.30;;;;;;;14.04;73.87;100216.47;337923;29;1465;-72
2022/10/12 00:05:36;;;;;;;8.23;5.38;;;;;;;14.03;73.89;100210.38;337769;29;1490;-72
2022/10/12 00:06:09;;;;;;;7.82;5.50;;;;;;;14.01;74.02;100213.97;338789;29;1165;-72
2022/10/12 00:06:23;;;;;;;10.70;5.93;;;;;;;13.99;74.04;100214.03;338492;29;1176;-72
2022/10/12 00:06:35;;;;;;;7.63;5.53;;;;;;;13.98;74.12;100213.19;338261;29;1600;-72
2022/10/12 00:06:46;;;;;;;7.35;5.22;;;;;;;13.97;74.05;100206.25;337204;29;1703;-72
2022/10/12 00:06:58;;;;;;;8.73;5.32;;;;;;;13.95;73.99;100210.69;337871;29;1240;-72
2022/10/12 00:07:10;;;;;;;10.00;5.60;;;;;;;13.94;74.26;100214.22;338585;29;1264;-72
2022/10/12 00:07:22;;;;;;;9.68;5.50;;;;;;;13.96;74.00;100215.00;337741;29;1668;-72
2022/10/12 00:07:34;;;;;;;8.63;5.22;;;;;;;13.95;73.95;100212.44;337210;29;1118;-72
2022/10/12 00:07:47;;;;;;;9.88;5.45;;;;;;;13.93;73.87;100207.25;337172;29;1237;-72
2022/10/12 00:07:59;;;;;;;9.40;5.63;;;;;;;13.94;73.80;100211.59;338268;29;1227;-72
2022/10/12 00:08:11;;;;;;;9.57;5.82;;;;;;;13.94;73.76;100219.44;338759;29;1496;-72
2022/10/12 00:08:23;;;;;;;9.38;5.95;;;;;;;13.93;73.57;100211.66;338514;29;1351;-73
2022/10/12 00:08:37;;;;;;;12.55;6.20;;;;;;;13.91;73.46;100209.09;338376;29;1764;-73
2022/10/12 00:08:52;;;;;;;12.55;5.90;;;;;;;13.94;73.78;100208.13;338040;29;1906;-73
2022/10/12 00:09:05;;;;;;;9.18;5.50;;;;;;;13.93;73.78;100212.50;337283;29;1604;-73
2022/10/12 00:09:17;;;;;;;7.95;5.65;;;;;;;13.93;73.24;100212.50;339713;29;1374;-72
2022/10/12 00:09:28;;;;;;;9.55;5.68;;;;;;;13.93;73.59;100212.50;338626;29;1428;-73
2022/10/12 00:09:40;;;;;;;10.00;5.65;;;;;;;13.92;73.69;100215.16;337382;29;1048;-72
2022/10/12 00:09:52;;;;;;;8.98;5.70;;;;;;;13.89;73.71;100210.91;337148;29;1203;-72
2022/10/12 00:10:04;;;;;;;9.80;5.95;;;;;;;13.89;73.55;100212.69;337332;29;1109;-72
2022/10/12 00:10:17;;;;;;;9.77;6.03;;;;;;;13.87;73.63;100212.72;337293;29;1327;-72
2022/10/12 00:10:29;;;;;;;10.07;6.05;;;;;;;13.87;73.55;100206.66;338727;29;1203;-72
2022/10/12 00:10:42;;;;;;;10.95;5.97;;;;;;;13.87;73.70;100207.50;338737;29;1158;-72
2022/10/12 00:10:54;;;;;;;11.32;5.82;;;;;;;13.86;73.78;100212.78;337937;29;1744;-72
2022/10/12 00:11:10;;;;;;;10.07;5.53;;;;;;;13.87;73.94;100210.13;338505;29;1028;-72
2022/10/12 00:11:24;;;;;;;10.10;5.60;;;;;;;13.83;73.95;100211.13;339589;29;1280;-72
2022/10/12 00:11:39;;;;;;;11.02;5.85;;;;;;;13.81;73.97;100210.34;339352;29;1043;-70
2022/10/12 00:11:51;;;;;;;10.88;6.00;;;;;;;13.79;74.03;100217.38;339870;29;1079;-70
2022/10/12 00:12:03;;;;;;;11.43;5.97;;;;;;;13.78;73.71;100213.06;339531;29;1038;-70
2022/10/12 00:12:15;;;;;;;13.73;6.10;;;;;;;13.77;73.98;100214.81;339525;29;1468;-71
2022/10/12 00:12:27;;;;;;;14.38;6.20;;;;;;;13.78;74.14;100207.81;339632;29;1104;-72
2022/10/12 00:12:39;;;;;;;13.93;6.07;;;;;;;13.76;74.09;100210.53;339152;29;1586;-72
2022/10/12 00:12:51;;;;;;;13.50;5.97;;;;;;;13.79;74.14;100209.53;339150;29;1060;-72
2022/10/12 00:13:03;;;;;;;10.18;5.78;;;;;;;13.79;74.25;100215.63;339642;29;1278;-72
2022/10/12 00:13:15;;;;;;;9.93;5.85;;;;;;;13.80;74.10;100213.84;339392;29;1472;-72
2022/10/12 00:13:27;;;;;;;8.63;5.57;;;;;;;13.81;74.10;100212.13;338022;29;1604;-72
2022/10/12 00:13:39;;;;;;;9.93;5.70;;;;;;;13.82;74.16;100211.19;338202;29;1850;-72
2022/10/12 00:13:52;;;;;;;9.43;5.85;;;;;;;13.82;74.27;100214.66;338435;29;1553;-72
2022/10/12 00:14:04;;;;;;;9.48;6.07;;;;;;;13.83;74.07;100216.34;337355;29;1076;-72
2022/10/12 00:14:16;;;;;;;10.50;6.03;;;;;;;13.83;74.03;100208.53;337876;29;1374;-73
2022/10/12 00:14:28;;;;;;;10.00;5.60;;;;;;;13.81;74.13;100212.94;338311;29;1913;-72
2022/10/12 00:14:40;;;;;;;11.18;5.47;;;;;;;13.81;74.12;100212.94;339110;29;2247;-72
2022/10/12 00:14:52;;;;;;;10.82;5.60;;;;;;;13.76;74.03;100213.13;339802;29;1335;-72
2022/10/12 00:15:04;;;;;;;10.80;5.65;;;;;;;13.70;74.15;100215.09;339127;29;1673;-72
2022/10/12 00:15:16;;;;;;;11.27;5.70;;;;;;;13.66;74.23;100216.13;339238;29;1675;-70
2022/10/12 00:15:28;;;;;;;10.43;5.70;;;;;;;13.64;74.25;100215.31;339608;29;1178;-70
2022/10/12 00:15:40;;;;;;;10.02;5.80;;;;;;;13.65;74.31;100217.03;339519;29;1051;-71
2022/10/12 00:15:58;;;;;;;9.70;6.00;;;;;;;13.65;74.30;100211.81;339176;29;1055;-70
2022/10/12 00:16:11;;;;;;;10.25;5.90;;;;;;;13.65;74.43;100211.81;338215;29;952;-71
2022/10/12 00:16:24;;;;;;;10.80;5.85;;;;;;;13.66;74.37;100216.13;338052;29;1761;-70
2022/10/12 00:16:36;;;;;;;11.40;6.07;;;;;;;13.66;74.38;100214.38;338907;29;1673;-71
2022/10/12 00:16:50;;;;;;;9.57;5.93;;;;;;;13.67;74.41;100210.00;338627;29;1040;-71
2022/10/12 00:17:03;;;;;;;9.25;6.15;;;;;;;13.65;74.40;100211.81;338559;29;1208;-72
2022/10/12 00:17:15;;;;;;;13.27;6.30;;;;;;;13.65;74.40;100210.03;338115;29;1691;-72
2022/10/12 00:17:27;;;;;;;12.85;5.95;;;;;;;13.66;74.41;100209.16;338533;29;1900;-72
2022/10/12 00:17:38;;;;;;;11.15;5.70;;;;;;;13.67;74.27;100210.00;338421;29;1327;-73
2022/10/12 00:17:52;;;;;;;8.75;5.72;;;;;;;13.66;74.41;100210.88;337431;29;1016;-72
2022/10/12 00:18:05;;;;;;;12.48;6.05;;;;;;;13.67;74.22;100212.63;337465;29;1828;-72
2022/10/12 00:18:17;;;;;;;13.25;6.00;;;;;;;13.69;74.52;100213.41;337450;29;1607;-72
2022/10/12 00:18:30;;;;;;;11.95;5.80;;;;;;;13.69;74.42;100203.81;338032;29;1816;-73
2022/10/12 00:18:43;;;;;;;10.68;5.88;;;;;;;13.70;74.21;100215.09;338706;29;1307;-73
2022/10/12 00:18:56;;;;;;;10.13;6.03;;;;;;;13.72;74.19;100210.66;338571;29;1038;-73
2022/10/12 00:19:12;;;;;;;10.82;5.90;;;;;;;13.73;74.30;100205.38;338750;29;1177;-73
2022/10/12 00:19:23;;;;;;;10.32;6.05;;;;;;;13.72;74.25;100208.06;337273;29;1695;-73
2022/10/12 00:19:35;;;;;;;10.23;6.03;;;;;;;13.70;74.28;100209.88;338084;29;1510;-73
2022/10/12 00:19:49;;;;;;;10.27;6.05;;;;;;;13.69;74.28;100202.97;337106;29;1063;-72
2022/10/12 00:20:02;;;;;;;10.98;6.20;;;;;;;13.70;74.38;100204.66;337248;29;1067;-72
2022/10/12 00:20:14;;;;;;;10.77;5.90;;;;;;;13.72;74.24;100208.06;337067;29;1105;-72
2022/10/12 00:20:26;;;;;;;10.73;5.75;;;;;;;13.75;74.30;100215.78;337603;29;1459;-72
2022/10/12 00:20:38;;;;;;;10.60;5.72;;;;;;;13.73;74.08;100207.16;338394;29;1857;-72
2022/10/12 00:21:03;;;;;;;9.57;5.85;;;;;;;13.75;73.79;100214.03;338548;29;1070;-72
2022/10/12 00:21:16;;;;;;;10.02;5.63;;;;;;;13.76;74.07;100213.13;338311;29;1756;-72
2022/10/12 00:21:29;;;;;;;9.07;5.50;;;;;;;13.76;74.18;100209.66;337861;29;1688;-72
2022/10/12 00:21:41;;;;;;;11.05;5.65;;;;;;;13.76;74.16;100205.28;338316;29;1816;-72
2022/10/12 00:21:53;;;;;;;9.45;5.50;;;;;;;13.76;74.07;100204.41;338299;29;1820;-72
2022/10/12 00:22:05;;;;;;;8.50;5.18;;;;;;;13.76;74.23;100209.66;338295;29;1383;-72
2022/10/12 00:22:17;;;;;;;7.05;5.40;;;;;;;13.76;74.09;100205.28;338058;29;1439;-72
2022/10/12 00:22:30;;;;;;;7.13;5.50;;;;;;;13.77;74.13;100206.13;338007;29;1905;-72
2022/10/12 00:22:41;;;;;;;7.25;5.47;;;;;;;13.77;74.06;100213.97;338605;29;1886;-73
2022/10/12 00:22:53;;;;;;;7.38;5.38;;;;;;;13.78;74.03;100207.81;338624;29;1130;-72
2022/10/12 00:23:06;;;;;;;7.65;5.32;;;;;;;13.79;74.13;100209.53;338395;29;1580;-73
2022/10/12 00:23:18;;;;;;;8.02;5.30;;;;;;;13.80;73.93;100211.22;338063;29;2259;-73
2022/10/12 00:23:31;;;;;;;6.88;5.47;;;;;;;13.78;74.03;100213.06;337860;29;1359;-73
2022/10/12 00:23:44;;;;;;;6.65;5.60;;;;;;;13.79;73.88;100212.16;337598;29;1540;-73
2022/10/12 00:24:00;;;;;;;8.98;5.80;;;;;;;13.78;73.97;100207.81;338398;29;1302;-73
2022/10/12 00:24:12;;;;;;;11.05;5.90;;;;;;;13.80;73.76;100211.22;339074;29;1662;-73
2022/10/12 00:24:24;;;;;;;10.73;5.88;;;;;;;13.79;74.22;100214.78;339361;29;1626;-73
2022/10/12 00:24:36;;;;;;;9.50;5.70;;;;;;;13.79;73.92;100209.53;338246;29;1025;-73
2022/10/12 00:24:53;;;;;;;8.95;5.57;;;;;;;13.79;73.96;100214.78;338124;29;1065;-72
2022/10/12 00:25:06;;;;;;;8.93;5.43;;;;;;;13.78;73.85;100208.69;338044;29;1032;-72
2022/10/12 00:25:18;;;;;;;7.70;5.32;;;;;;;13.78;74.02;100208.69;338353;29;1297;-73
2022/10/12 00:25:30;;;;;;;9.77;5.63;;;;;;;13.77;73.88;100212.22;338891;29;1672;-73
2022/10/12 00:25:42;;;;;;;10.68;5.82;;;;;;;13.76;74.10;100215.75;338872;29;2105;-72
2022/10/12 00:25:54;;;;;;;10.20;5.80;;;;;;;13.76;74.12;100213.13;338429;29;1036;-72
2022/10/12 00:26:10;;;;;;;10.00;5.80;;;;;;;13.74;74.18;100211.47;337662;29;1857;-72
2022/10/12 00:26:22;;;;;;;10.07;5.55;;;;;;;13.70;74.17;100209.88;337852;29;1980;-72
2022/10/12 00:26:34;;;;;;;10.30;5.45;;;;;;;13.68;74.31;100206.47;337406;29;1070;-72
2022/10/12 00:26:49;;;;;;;9.32;5.40;;;;;;;13.70;74.07;100209.88;337165;29;1178;-72
2022/10/12 00:27:01;;;;;;;9.50;5.50;;;;;;;13.69;73.98;100214.25;337596;29;1245;-72
2022/10/12 00:27:13;;;;;;;11.82;5.78;;;;;;;13.69;74.19;100213.41;337336;29;1141;-72
2022/10/12 00:27:26;;;;;;;10.95;5.85;;;;;;;13.68;74.37;100211.69;338781;29;1396;-72
2022/10/12 00:27:38;;;;;;;8.10;5.55;;;;;;;13.68;74.32;100207.34;338743;29;2173;-73
2022/10/12 00:27:50;;;;;;;8.38;5.63;;;;;;;13.70;74.40;100209.88;339413;29;1020;-73
2022/10/12 00:28:03;;;;;;;8.82;5.72;;;;;;;13.69;74.49;100210.78;339593;29;1024;-73
2022/10/12 00:28:14;;;;;;;9.25;5.68;;;;;;;13.69;74.27;100205.56;338814;29;1442;-73
2022/10/12 00:28:27;;;;;;;8.68;5.80;;;;;;;13.68;74.44;100206.47;338366;29;1273;-73
2022/10/12 00:28:40;;;;;;;8.43;6.00;;;;;;;13.67;74.45;100212.63;338843;29;1031;-73
2022/10/12 00:29:00;;;;;;;9.50;5.88;;;;;;;13.67;74.45;100215.22;338692;29;1185;-72
2022/10/12 00:29:12;;;;;;;9.63;5.78;;;;;;;13.64;74.58;100210.09;337245;29;1079;-72
2022/10/12 00:29:24;;;;;;;8.27;6.03;;;;;;;13.65;74.52;100212.66;336977;29;1580;-72
2022/10/12 00:29:36;;;;;;;8.00;5.63;;;;;;;13.66;74.36;100213.50;338332;29;1441;-72
2022/10/12 00:29:48;;;;;;;9.30;5.65;;;;;;;13.67;74.41;100216.06;337952;29;1688;-72
2022/10/12 00:30:00;;;;;;;9.93;5.68;;;;;;;13.67;74.39;100215.22;338336;29;1345;-72
2022/10/12 00:30:12;;;;;;;9.60;5.63;;;;;;;13.68;74.30;100207.34;340065;29;1060;-72
2022/10/12 00:30:24;;;;;;;10.02;5.80;;;;;;;13.66;74.57;100208.28;338139;29;1640;-71
2022/10/12 00:30:39;;;;;;;10.15;5.72;;;;;;;13.66;74.52;100203.94;337798;29;1315;-71
2022/10/12 00:30:51;;;;;;;10.38;5.50;;;;;;;13.68;74.57;100206.47;337025;29;1508;-71
2022/10/12 00:31:11;;;;;;;10.68;5.50;;;;;;;13.70;74.32;100204.66;337715;29;1715;-71
2022/10/12 00:31:25;;;;;;;10.27;6.00;;;;;;;13.69;74.40;100205.56;338166;29;1333;-71
2022/10/12 00:31:37;;;;;;;12.35;6.05;;;;;;;13.69;74.29;100205.56;338404;29;1032;-73
2022/10/12 00:31:49;;;;;;;12.35;5.85;;;;;;;13.69;74.44;100213.41;338148;29;1072;-73
2022/10/12 00:32:01;;;;;;;12.77;5.82;;;;;;;13.69;74.58;100211.63;338351;29;1101;-73
2022/10/12 00:32:14;;;;;;;12.57;6.05;;;;;;;13.69;74.52;100213.41;338172;29;1329;-73
2022/10/12 00:32:26;;;;;;;12.13;5.88;;;;;;;13.70;74.40;100209.88;336641;29;1462;-73
2022/10/12 00:32:38;;;;;;;11.77;5.68;;;;;;;13.68;74.54;100216.91;338357;29;1886;-73
2022/10/12 00:32:49;;;;;;;11.05;5.57;;;;;;;13.70;74.50;100209.88;338337;29;1072;-73
2022/10/12 00:33:01;;;;;;;8.43;5.40;;;;;;;13.70;74.31;100204.66;337697;29;2158;-73
2022/10/12 00:33:13;;;;;;;8.23;5.43;;;;;;;13.72;74.24;100208.06;336419;29;1598;-73
2022/10/12 00:33:28;;;;;;;8.68;5.55;;;;;;;13.73;74.27;100209.78;336279;29;1553;-73
2022/10/12 00:33:40;;;;;;;9.20;5.65;;;;;;;13.74;74.34;100206.25;336292;29;1849;-72
2022/10/12 00:33:53;;;;;;;8.98;5.40;;;;;;;13.74;74.18;100208.84;336874;29;1231;-73
2022/10/12 00:34:05;;;;;;;8.57;5.20;;;;;;;13.75;74.20;100202.72;337006;29;1066;-72
2022/10/12 00:34:17;;;;;;;8.18;5.18;;;;;;;13.76;74.19;100210.53;336939;29;1385;-74
2022/10/12 00:34:29;;;;;;;8.73;5.50;;;;;;;13.77;74.18;100211.38;337203;29;1915;-72
2022/10/12 00:34:41;;;;;;;8.90;5.47;;;;;;;13.77;74.33;100214.81;338056;29;1871;-72
2022/10/12 00:34:54;;;;;;;9.27;5.55;;;;;;;13.78;74.12;100210.44;337016;29;1077;-72
2022/10/12 00:35:06;;;;;;;9.73;5.60;;;;;;;13.77;74.13;100206.13;337222;29;1101;-71
2022/10/12 00:35:18;;;;;;;10.35;5.82;;;;;;;13.77;74.14;100212.22;337417;29;1405;-71
2022/10/12 00:35:30;;;;;;;9.20;5.60;;;;;;;13.78;74.13;100207.81;336810;29;1928;-70
2022/10/12 00:35:42;;;;;;;9.27;5.25;;;;;;;13.79;74.00;100207.78;338655;29;1555;-71
2022/10/12 00:35:54;;;;;;;9.37;5.40;;;;;;;13.80;73.99;100213.84;338555;29;1051;-72
2022/10/12 00:36:22;;;;;;;8.05;5.53;;;;;;;13.80;73.90;100211.22;337969;29;1524;-72
2022/10/12 00:36:35;;;;;;;8.30;5.20;;;;;;;13.82;73.97;100203.34;338244;29;1431;-72
2022/10/12 00:36:47;;;;;;;8.85;5.43;;;;;;;13.81;74.00;100202.50;338157;29;1090;-72
2022/10/12 00:36:59;;;;;;;8.80;5.70;;;;;;;13.79;74.06;100209.53;337985;29;1639;-72
2022/10/12 00:37:10;;;;;;;9.05;5.50;;;;;;;13.77;74.04;100209.59;338595;29;1265;-71
2022/10/12 00:37:22;;;;;;;8.93;5.50;;;;;;;13.76;73.94;100207.91;337554;29;1988;-70
2022/10/12 00:37:34;;;;;;;8.52;5.90;;;;;;;13.74;73.92;100206.25;338045;29;1315;-71
2022/10/12 00:37:47;;;;;;;9.20;6.15;;;;;;;13.74;73.96;100203.63;338451;29;1122;-71
2022/10/12 00:37:59;;;;;;;8.73;5.68;;;;;;;13.74;73.94;100201.00;338563;29;1131;-71
2022/10/12 00:38:11;;;;;;;8.10;5.55;;;;;;;13.75;73.84;100202.72;338626;29;1604;-73
2022/10/12 00:38:23;;;;;;;7.95;5.70;;;;;;;13.73;73.99;100204.53;338071;29;1458;-71
2022/10/12 00:38:35;;;;;;;9.25;5.80;;;;;;;13.72;74.11;100208.06;338364;29;1957;-71
2022/10/12 00:38:48;;;;;;;10.18;5.75;;;;;;;13.70;74.39;100197.69;338056;29;1206;-72
2022/10/12 00:39:02;;;;;;;8.95;5.45;;;;;;;13.71;74.14;100206.38;339310;29;1644;-73
2022/10/12 00:39:14;;;;;;;8.27;5.40;;;;;;;13.68;73.99;100202.13;338944;29;1533;-73
2022/10/12 00:39:29;;;;;;;8.88;5.25;;;;;;;13.67;74.16;100199.56;338810;29;743;-72
2022/10/12 00:39:41;;;;;;;9.77;5.22;;;;;;;13.68;74.18;100206.47;338633;29;1100;-73
2022/10/12 00:39:53;;;;;;;9.27;5.32;;;;;;;13.70;74.10;100204.66;339299;29;1044;-70
2022/10/12 00:40:06;;;;;;;9.10;5.13;;;;;;;13.72;74.27;100202.81;339829;29;1035;-70
2022/10/12 00:40:18;;;;;;;8.13;5.20;;;;;;;13.68;74.09;100201.25;339609;29;1263;-70
2022/10/12 00:40:29;;;;;;;8.85;5.45;;;;;;;13.68;74.21;100203.84;338820;29;1715;-70
2022/10/12 00:40:41;;;;;;;9.30;5.70;;;;;;;13.64;74.18;100200.50;339609;29;1884;-71
2022/10/12 00:40:53;;;;;;;9.52;5.82;;;;;;;13.63;74.32;100197.97;339386;29;1068;-71
2022/10/12 00:41:05;;;;;;;9.27;5.72;;;;;;;13.64;74.48;100210.09;338803;29;1056;-71
2022/10/12 00:41:20;;;;;;;8.45;5.63;;;;;;;13.63;74.40;100208.41;337789;29;1788;-71
2022/10/12 00:41:42;;;;;;;7.40;5.65;;;;;;;13.59;74.29;100205.88;339839;29;1631;-71
2022/10/12 00:41:54;;;;;;;8.35;5.57;;;;;;;13.59;74.50;100205.88;338426;29;1269;-71
2022/10/12 00:42:06;;;;;;;9.80;5.65;;;;;;;13.56;74.43;100213.84;339326;29;1647;-71
2022/10/12 00:42:19;;;;;;;10.57;5.72;;;;;;;13.55;74.41;100206.91;339651;29;1393;-72
2022/10/12 00:42:31;;;;;;;9.32;5.50;;;;;;;13.51;74.55;100210.53;338932;29;1482;-71
2022/10/12 00:42:43;;;;;;;8.53;5.40;;;;;;;13.49;74.60;100207.13;338591;29;2212;-71
2022/10/12 00:42:55;;;;;;;8.68;5.32;;;;;;;13.48;74.75;100200.22;339291;29;1494;-71
2022/10/12 00:43:44;;;;;;;9.85;5.45;;;;;;;13.46;74.93;100204.66;339412;29;1956;-72
2022/10/12 00:43:57;;;;;;;12.60;5.60;;;;;;;13.46;75.04;100198.56;337319;29;1308;-71
2022/10/12 00:44:39;;;;;;;10.85;5.32;;;;;;;13.43;75.04;100202.13;337095;29;1388;-71
2022/10/12 00:44:51;;;;;;;7.82;5.38;;;;;;;13.41;74.97;100203.94;337237;29;1706;-70
2022/10/12 00:45:04;;;;;;;8.25;5.20;;;;;;;13.43;74.97;100207.34;338185;29;1172;-70
2022/10/12 00:45:16;;;;;;;9.32;5.20;;;;;;;13.41;75.04;100203.94;338000;29;1302;-70
2022/10/12 00:45:29;;;;;;;9.68;5.30;;;;;;;13.37;74.80;100202.34;338299;29;1246;-70
2022/10/12 00:45:41;;;;;;;9.77;5.20;;;;;;;13.39;74.76;100208.38;336520;29;2168;-70
2022/10/12 00:45:53;;;;;;;9.82;5.28;;;;;;;13.39;74.75;100206.59;336863;29;2655;-70
2022/10/12 00:46:12;;;;;;;10.95;5.18;;;;;;;13.43;74.70;100201.28;337098;29;1099;-70
2022/10/12 00:46:29;;;;;;;9.10;5.28;;;;;;;13.44;74.77;100197.75;336081;29;1616;-70
2022/10/12 00:46:44;;;;;;;10.68;5.47;;;;;;;13.44;74.77;100203.84;337221;29;1065;-70
2022/10/12 00:46:59;;;;;;;10.77;5.50;;;;;;;13.46;74.85;100207.25;337687;29;1197;-70
2022/10/12 00:47:19;;;;;;;7.85;5.25;;;;;;;13.48;74.56;100205.44;338593;29;1110;-71
2022/10/12 00:47:35;;;;;;;10.00;5.18;;;;;;;13.50;74.71;100197.53;337442;29;1034;-72
2022/10/12 00:47:59;;;;;;;8.82;5.20;;;;;;;13.49;74.67;100206.28;337534;29;1774;-70
2022/10/12 00:48:10;;;;;;;9.05;5.03;;;;;;;13.48;74.55;100210.66;338552;29;1075;-70
2022/10/12 00:48:23;;;;;;;8.60;5.25;;;;;;;13.48;74.37;100200.22;338448;29;1290;-70
2022/10/12 00:48:36;;;;;;;7.93;5.38;;;;;;;13.46;74.59;100196.81;338346;29;1379;-70
2022/10/12 00:49:17;;;;;;;7.72;5.05;;;;;;;13.46;74.56;100198.56;338463;29;1038;-70
2022/10/12 00:49:29;;;;;;;7.78;5.20;;;;;;;13.47;74.49;100206.34;337850;29;2269;-71
2022/10/12 00:49:42;;;;;;;8.18;5.05;;;;;;;13.50;74.49;100208.84;338336;29;1678;-70
2022/10/12 00:49:59;;;;;;;7.82;4.90;;;;;;;13.50;74.52;100200.13;337145;29;1936;-70
2022/10/12 00:50:19;;;;;;;7.90;4.90;;;;;;;13.49;74.37;100201.91;338490;29;1517;-70
2022/10/12 00:50:34;;;;;;;8.65;5.30;;;;;;;13.48;74.18;100205.44;338876;29;1149;-71
2022/10/12 00:50:46;;;;;;;8.55;5.30;;;;;;;13.49;74.01;100195.84;337321;29;1235;-71
2022/10/12 00:51:01;;;;;;;8.23;5.25;;;;;;;13.49;74.03;100206.28;337300;29;1059;-72
2022/10/12 00:51:15;;;;;;;9.68;5.60;;;;;;;13.50;74.15;100198.41;337298;29;1199;-72
2022/10/12 00:51:27;;;;;;;9.18;5.40;;;;;;;13.50;74.12;100203.63;337190;29;1971;-72
2022/10/12 00:51:42;;;;;;;8.95;5.38;;;;;;;13.51;74.31;100202.72;338381;29;1769;-70
2022/10/12 00:52:00;;;;;;;8.60;5.60;;;;;;;13.50;74.12;100198.41;337217;29;1067;-70
2022/10/12 00:52:16;;;;;;;9.82;5.43;;;;;;;13.51;74.06;100196.63;337430;29;1273;-70
2022/10/12 00:52:39;;;;;;;11.27;5.32;;;;;;;13.52;74.10;100200.94;337656;29;1084;-70
2022/10/12 00:52:51;;;;;;;11.25;5.32;;;;;;;13.51;74.12;100202.72;337725;29;1126;-70
2022/10/12 00:53:10;;;;;;;12.40;5.32;;;;;;;13.51;73.89;100199.25;337126;29;1794;-70
2022/10/12 00:53:27;;;;;;;10.45;5.35;;;;;;;13.50;74.17;100202.75;337858;29;1319;-70
2022/10/12 00:53:43;;;;;;;8.02;5.30;;;;;;;13.49;73.85;100199.31;338564;29;1885;-70
2022/10/12 00:54:01;;;;;;;8.32;5.35;;;;;;;13.49;73.99;100196.69;338544;29;1105;-70
2022/10/12 00:54:17;;;;;;;8.75;5.32;;;;;;;13.49;73.89;100195.84;338659;29;1228;-71
2022/10/12 00:54:35;;;;;;;11.10;5.43;;;;;;;13.49;73.97;100201.06;338725;29;1032;-71
2022/10/12 00:54:51;;;;;;;11.18;5.43;;;;;;;13.49;74.00;100193.22;338296;29;1136;-72
2022/10/12 00:55:05;;;;;;;9.30;5.43;;;;;;;13.48;74.17;100195.00;338154;29;1292;-72
2022/10/12 00:55:19;;;;;;;8.85;5.38;;;;;;;13.45;73.94;100195.09;338534;29;1571;-72
2022/10/12 00:55:37;;;;;;;8.85;5.32;;;;;;;13.39;74.14;100203.16;338686;29;1131;-72
2022/10/12 00:55:53;;;;;;;9.75;5.30;;;;;;;13.37;73.93;100200.59;338665;29;1257;-72
2022/10/12 00:56:11;;;;;;;8.80;5.18;;;;;;;13.38;74.05;100199.69;338802;29;1024;-72
2022/10/12 00:56:29;;;;;;;8.27;5.18;;;;;;;13.38;73.92;100201.44;338934;29;1270;-72
2022/10/12 00:56:43;;;;;;;7.13;4.93;;;;;;;13.37;74.04;100197.97;337714;29;1776;-72
2022/10/12 00:56:56;;;;;;;7.18;4.75;;;;;;;13.39;73.94;100200.53;338619;29;1035;-72
2022/10/12 00:57:11;;;;;;;7.68;4.63;;;;;;;13.41;73.95;100208.31;338668;29;1056;-72
2022/10/12 00:57:23;;;;;;;9.88;5.13;;;;;;;13.39;74.30;100200.53;338834;29;1318;-72
2022/10/12 00:57:35;;;;;;;11.65;5.25;;;;;;;13.39;74.06;100198.75;338652;29;1140;-72
2022/10/12 00:57:51;;;;;;;9.57;5.00;;;;;;;13.37;74.31;100207.56;338690;29;1043;-71
2022/10/12 00:58:05;;;;;;;8.43;5.32;;;;;;;13.35;74.06;100198.94;338208;29;1831;-71
2022/10/12 00:58:18;;;;;;;7.63;5.15;;;;;;;13.36;73.91;100205.84;338494;29;1204;-71
2022/10/12 00:58:31;;;;;;;6.72;4.85;;;;;;;13.35;73.96;100204.16;338728;29;1339;-71
2022/10/12 00:58:47;;;;;;;8.45;5.18;;;;;;;13.32;74.35;100199.03;338606;29;1020;-72
2022/10/12 00:59:02;;;;;;;12.27;5.53;;;;;;;13.33;74.10;100203.38;338646;29;980;-72
2022/10/12 00:59:25;;;;;;;11.48;5.43;;;;;;;13.33;74.07;100195.53;338472;29;1517;-70
2022/10/12 00:59:47;;;;;;;7.63;5.22;;;;;;;13.28;74.33;100207.84;337376;29;1235;-70
2022/10/12 01:00:07;;;;;;;10.48;5.50;;;;;;;13.28;74.34;100210.47;336946;29;1093;-71
2022/10/12 01:00:19;;;;;;;8.88;4.88;;;;;;;13.28;74.18;100202.63;337904;29;1633;-71
2022/10/12 01:00:31;;;;;;;7.35;4.75;;;;;;;13.30;74.08;100203.47;338343;29;1132;-71
2022/10/12 01:00:44;;;;;;;7.65;4.78;;;;;;;13.32;73.94;100204.25;338703;29;1075;-71
2022/10/12 01:01:00;;;;;;;8.30;4.80;;;;;;;13.31;74.21;100207.78;338634;29;1300;-71
2022/10/12 01:01:12;;;;;;;9.68;5.10;;;;;;;13.31;74.39;100199.97;338646;29;1066;-71
2022/10/12 01:01:24;;;;;;;10.40;4.90;;;;;;;13.34;74.10;100205.06;338404;29;1225;-73
2022/10/12 01:01:37;;;;;;;9.95;4.63;;;;;;;13.31;74.36;100195.56;338742;29;1111;-73
2022/10/12 01:01:49;;;;;;;11.13;5.05;;;;;;;13.33;74.26;100200.75;337902;29;1767;-73
2022/10/12 01:02:01;;;;;;;8.77;5.22;;;;;;;13.33;74.16;100205.97;338607;29;1184;-72
2022/10/12 01:02:14;;;;;;;9.30;5.35;;;;;;;13.32;74.05;100204.25;337300;29;1885;-72
2022/10/12 01:02:30;;;;;;;8.15;5.45;;;;;;;13.33;73.91;100200.75;339818;29;1389;-72
2022/10/12 01:02:44;;;;;;;6.88;5.20;;;;;;;13.33;73.98;100205.97;340102;29;1086;-72
2022/10/12 01:02:57;;;;;;;7.40;5.20;;;;;;;13.32;74.00;100202.53;337374;29;1324;-72
2022/10/12 01:03:14;;;;;;;8.55;5.38;;;;;;;13.33;74.03;100200.75;337209;29;1240;-71
2022/10/12 01:03:26;;;;;;;9.13;5.32;;;;;;;13.33;73.92;100205.97;338483;29;1297;-72
2022/10/12 01:03:38;;;;;;;9.38;5.32;;;;;;;13.30;74.04;100206.94;338884;29;1234;-72
2022/10/12 01:03:51;;;;;;;9.07;5.25;;;;;;;13.31;73.94;100203.41;338183;29;1657;-72
2022/10/12 01:04:05;;;;;;;8.75;5.22;;;;;;;13.31;73.91;100202.56;338722;29;1319;-72
2022/10/12 01:04:17;;;;;;;9.23;5.50;;;;;;;13.31;74.09;100205.19;338537;29;1318;-72
2022/10/12 01:04:31;;;;;;;8.35;5.25;;;;;;;13.32;73.79;100204.25;338487;29;1109;-72
2022/10/12 01:04:44;;;;;;;7.13;4.95;;;;;;;13.32;73.87;100201.66;339530;29;1084;-72
2022/10/12 01:04:57;;;;;;;7.28;5.10;;;;;;;13.33;74.00;100200.75;338917;29;1579;-72
2022/10/12 01:05:10;;;;;;;8.13;5.33;;;;;;;13.32;73.78;100201.66;338688;29;1737;-72